createdAt,value
2022-11-24T00:02:49.077Z,82.95
2022-11-24T00:07:54.349Z,81.70
2022-11-24T00:12:59.881Z,83.17
2022-11-24T00:18:04.280Z,82.44
2022-11-24T00:23:10.947Z,82.67
2022-11-24T00:28:16.914Z,83.54
2022-11-24T00:33:21.388Z,85.00
2022-11-24T00:38:26.528Z,85.10
2022-11-24T00:43:32.003Z,84.88
2022-11-24T00:48:37.347Z,84.02
2022-11-24T00:53:42.760Z,82.61
2022-11-24T00:58:48.548Z,82.17
2022-11-24T01:03:54.644Z,81.25
2022-11-24T01:08:59.194Z,82.04
2022-11-24T01:14:04.858Z,82.07
2022-11-24T01:19:09.926Z,82.20
2022-11-24T01:24:14.719Z,81.16
2022-11-24T01:29:20.237Z,81.73
2022-11-24T01:34:25.309Z,81.03
2022-11-24T01:39:31.991Z,81.91
2022-11-24T01:44:37.490Z,81.56
2022-11-24T01:49:46.131Z,80.37
2022-11-24T01:54:54.739Z,80.41
2022-11-24T02:00:07.558Z,81.24
2022-11-24T02:05:25.516Z,81.22
2022-11-24T02:10:31.019Z,80.60
2022-11-24T02:15:38.188Z,80.79
2022-11-24T02:20:42.350Z,80.82
2022-11-24T02:25:57.706Z,79.77
2022-11-24T02:31:04.210Z,80.03
2022-11-24T02:36:09.182Z,80.53
2022-11-24T02:41:20.192Z,81.26
2022-11-24T02:46:25.945Z,80.76
2022-11-24T02:51:30.244Z,80.99
2022-11-24T02:56:34.541Z,80.50
2022-11-24T03:01:40.079Z,82.70
2022-11-24T03:06:44.505Z,83.74
2022-11-24T03:11:50.128Z,84.54
2022-11-24T03:16:55.720Z,83.33
2022-11-24T03:22:01.329Z,82.60
2022-11-24T03:27:05.660Z,81.90
2022-11-24T03:32:12.644Z,82.02
2022-11-24T03:37:18.092Z,83.95
2022-11-24T03:42:22.279Z,82.53
2022-11-24T03:47:27.935Z,81.73
2022-11-24T03:52:32.687Z,81.20
2022-11-24T03:57:36.725Z,80.32
2022-11-24T04:02:42.823Z,80.29
2022-11-24T04:07:47.307Z,81.33
2022-11-24T04:12:51.661Z,80.95
2022-11-24T04:17:58.045Z,79.62
2022-11-24T04:23:02.613Z,81.34
2022-11-24T04:28:06.947Z,79.98
2022-11-24T04:33:14.680Z,81.93
2022-11-24T04:39:22.907Z,83.64
2022-11-24T04:43:42.674Z,83.51
2022-11-24T04:48:48.280Z,83.69
2022-11-24T04:53:52.982Z,82.91
2022-11-24T04:58:57.111Z,82.36
2022-11-24T05:04:02.500Z,80.96
2022-11-24T05:09:07.676Z,82.84
2022-11-24T05:14:12.046Z,82.21
2022-11-24T05:19:18.590Z,82.14
2022-11-24T05:24:22.755Z,79.92
2022-11-24T05:29:27.522Z,81.59
2022-11-24T05:34:33.890Z,82.87
2022-11-24T05:39:38.699Z,80.02
2022-11-24T05:44:42.912Z,80.87
2022-11-24T05:49:48.776Z,80.28
2022-11-24T05:54:52.976Z,80.67
2022-11-24T05:59:58.845Z,80.64
2022-11-24T06:05:05.130Z,81.43
2022-11-24T06:10:09.811Z,81.18
2022-11-24T06:15:14.153Z,81.90
2022-11-24T06:20:19.926Z,81.92
2022-11-24T06:25:23.957Z,81.35
2022-11-24T06:30:28.030Z,81.55
2022-11-24T06:35:33.407Z,80.04
2022-11-24T06:40:38.668Z,80.59
2022-11-24T06:45:42.695Z,76.04
2022-11-24T06:50:50.337Z,70.31
2022-11-24T06:55:55.059Z,67.39
2022-11-24T07:01:00.211Z,64.67
2022-11-24T07:06:06.369Z,61.48
2022-11-24T07:11:12.934Z,58.27
2022-11-24T07:16:18.708Z,58.42
2022-11-24T07:21:29.518Z,58.09
2022-11-24T07:26:37.389Z,54.03
2022-11-24T07:31:42.737Z,54.19
2022-11-24T07:36:48.463Z,52.28
2022-11-24T07:41:52.892Z,50.50
2022-11-24T07:46:57.024Z,50.80
2022-11-24T07:52:02.397Z,51.50
2022-11-24T07:57:07.745Z,51.24
2022-11-24T08:02:15.420Z,50.51
2022-11-24T08:07:21.131Z,48.60
2022-11-24T08:12:28.184Z,48.13
2022-11-24T08:17:32.231Z,47.59
2022-11-24T08:22:39.473Z,46.90
2022-11-24T08:27:44.095Z,45.82
2022-11-24T08:32:48.403Z,45.51
2022-11-24T08:37:53.889Z,44.77
2022-11-24T08:42:59.411Z,46.74
2022-11-24T08:48:03.700Z,49.08
2022-11-24T08:53:09.242Z,49.50
2022-11-24T08:58:13.448Z,48.06
2022-11-24T09:03:18.141Z,47.71
2022-11-24T09:08:24.777Z,48.28
2022-11-24T09:13:29.033Z,49.89
2022-11-24T09:18:34.445Z,52.45
2022-11-24T09:23:41.237Z,56.89
2022-11-24T09:28:47.263Z,59.04
2022-11-24T09:33:51.828Z,61.85
2022-11-24T09:38:59.274Z,63.79
2022-11-24T09:44:11.081Z,66.50
2022-11-24T09:49:24.743Z,69.64
2022-11-24T09:54:32.845Z,71.89
2022-11-24T09:59:37.520Z,72.24
2022-11-24T10:05:09.675Z,73.96
2022-11-24T10:10:24.196Z,75.27
2022-11-24T10:15:39.385Z,76.59
2022-11-24T10:20:53.795Z,77.31
2022-11-24T10:26:01.121Z,78.35
2022-11-24T10:31:18.996Z,79.42
2022-11-24T10:36:31.778Z,80.10
2022-11-24T10:41:46.435Z,80.63
2022-11-24T10:46:52.117Z,80.60
2022-11-24T10:52:07.186Z,81.27
2022-11-24T10:57:29.009Z,81.77
2022-11-24T11:02:38.518Z,82.03
2022-11-24T11:07:42.525Z,83.48
2022-11-24T11:12:48.061Z,84.29
2022-11-24T11:17:57.388Z,85.28
2022-11-24T11:23:04.802Z,84.11
2022-11-24T11:28:24.172Z,84.22
2022-11-24T11:38:54.401Z,82.46
2022-11-24T11:44:08.955Z,82.43
2022-11-24T11:49:13.951Z,82.53
2022-11-24T11:54:30.842Z,81.56
2022-11-24T11:59:59.141Z,80.47
2022-11-24T12:05:12.944Z,79.46
2022-11-24T12:10:31.674Z,80.01
2022-11-24T12:15:42.190Z,79.50
2022-11-24T12:20:58.785Z,78.98
2022-11-24T12:26:10.576Z,78.38
2022-11-24T12:31:22.536Z,77.60
2022-11-24T12:36:42.581Z,77.53
2022-11-24T12:42:00.881Z,76.66
2022-11-24T12:47:17.193Z,76.00
2022-11-24T12:52:27.440Z,76.33
2022-11-24T12:57:36.558Z,75.63
2022-11-24T13:03:01.861Z,75.38
2022-11-24T13:08:06.977Z,75.41
2022-11-24T13:13:12.642Z,75.62
2022-11-24T13:18:47.481Z,75.51
2022-11-24T13:23:58.536Z,75.22
2022-11-24T13:29:13.457Z,74.86
2022-11-24T13:35:03.804Z,74.17
2022-11-24T13:40:45.835Z,73.04
2022-11-24T13:45:55.370Z,72.67
2022-11-24T13:51:24.884Z,71.55
2022-11-24T13:56:32.360Z,71.25
2022-11-24T14:01:42.508Z,71.18
2022-11-24T14:06:54.921Z,70.79
2022-11-24T14:12:06.577Z,70.79
2022-11-24T14:17:22.960Z,70.56
2022-11-24T14:22:35.946Z,70.41
2022-11-24T14:27:40.686Z,70.28
2022-11-24T14:32:55.252Z,70.03
2022-11-24T14:38:04.397Z,70.82
2022-11-24T14:43:21.897Z,71.13
2022-11-24T14:48:28.994Z,70.78
2022-11-24T14:53:37.654Z,71.07
2022-11-24T14:58:42.662Z,70.92
2022-11-24T15:03:47.127Z,70.88
2022-11-24T15:08:53.696Z,70.38
2022-11-24T15:13:59.116Z,71.08
2022-11-24T15:19:04.002Z,71.48
2022-11-24T15:24:20.878Z,70.54
2022-11-24T15:29:25.017Z,70.45
2022-11-24T15:34:28.984Z,69.92
2022-11-24T15:39:34.847Z,69.45
2022-11-24T15:44:41.287Z,69.60
2022-11-24T15:49:46.590Z,70.18
2022-11-24T15:54:58.201Z,70.48
2022-11-24T16:00:02.802Z,70.72
2022-11-24T16:05:17.615Z,71.59
2022-11-24T16:10:28.453Z,71.53
2022-11-24T16:15:32.708Z,71.72
2022-11-24T16:20:37.778Z,71.51
2022-11-24T16:25:43.810Z,71.51
2022-11-24T16:30:50.728Z,71.28
2022-11-24T16:35:56.158Z,71.51
2022-11-24T16:41:03.541Z,72.18
2022-11-24T16:46:20.531Z,72.83
2022-11-24T16:51:29.946Z,73.80
2022-11-24T16:56:38.842Z,74.49
2022-11-24T17:01:46.525Z,75.00
2022-11-24T17:06:53.100Z,75.32
2022-11-24T17:11:58.527Z,75.61
2022-11-24T17:17:05.264Z,76.58
2022-11-24T17:22:09.458Z,77.20
2022-11-24T17:27:15.037Z,78.03
2022-11-24T17:32:19.370Z,77.92
2022-11-24T17:37:24.490Z,78.30
2022-11-24T17:42:30.285Z,78.42
2022-11-24T17:47:34.984Z,77.31
2022-11-24T17:52:38.977Z,77.74
2022-11-24T17:57:44.568Z,77.94
2022-11-24T18:02:48.864Z,77.85
2022-11-24T18:07:54.165Z,78.01
2022-11-24T18:13:00.118Z,78.18
2022-11-24T18:18:04.843Z,78.20
2022-11-24T18:23:09.414Z,78.30
2022-11-24T18:28:15.952Z,78.32
2022-11-24T18:33:21.880Z,78.86
2022-11-24T18:38:26.415Z,78.61
2022-11-24T18:43:32.594Z,78.21
2022-11-24T18:48:37.130Z,78.68
2022-11-24T18:53:42.530Z,78.37
2022-11-24T18:58:47.951Z,78.62
2022-11-24T19:03:54.356Z,78.84
2022-11-24T19:09:03.004Z,78.53
2022-11-24T19:14:13.115Z,78.66
2022-11-24T19:19:17.622Z,78.44
2022-11-24T19:24:25.737Z,78.26
2022-11-24T19:29:31.203Z,77.99
2022-11-24T19:34:35.421Z,77.77
2022-11-24T19:39:39.556Z,77.78
2022-11-24T19:44:45.066Z,78.17
2022-11-24T19:49:49.215Z,77.70
2022-11-24T19:54:53.226Z,78.18
2022-11-24T20:00:01.423Z,77.41
2022-11-24T20:05:10.607Z,77.76
2022-11-24T20:10:15.626Z,76.76
2022-11-24T20:15:21.216Z,77.12
2022-11-24T20:20:25.748Z,76.66
2022-11-24T20:25:29.780Z,77.79
2022-11-24T20:30:35.851Z,77.91
2022-11-24T20:35:41.142Z,77.66
2022-11-24T20:40:45.118Z,78.16
2022-11-24T20:45:50.627Z,77.30
2022-11-24T20:50:54.651Z,77.66
2022-11-24T20:56:05.889Z,78.29
2022-11-24T21:01:15.222Z,78.59
2022-11-24T21:06:19.267Z,78.46
2022-11-24T21:11:25.498Z,78.27
2022-11-24T21:16:32.938Z,78.16
2022-11-24T21:21:38.659Z,78.38
2022-11-24T21:26:44.367Z,78.27
2022-11-24T21:31:50.602Z,78.56
2022-11-24T21:36:54.654Z,78.42
2022-11-24T21:41:59.890Z,78.33
2022-11-24T21:47:05.380Z,78.48
2022-11-24T21:52:11.825Z,78.20
2022-11-24T21:57:15.762Z,77.76
2022-11-24T22:02:21.846Z,77.65
2022-11-24T22:07:25.944Z,78.19
2022-11-24T22:12:30.547Z,77.79
2022-11-24T22:17:37.981Z,77.79
2022-11-24T22:22:42.488Z,78.03
2022-11-24T22:27:46.469Z,78.43
2022-11-24T22:32:52.410Z,77.70
2022-11-24T22:37:57.872Z,78.13
2022-11-24T22:43:01.991Z,78.32
2022-11-24T22:48:08.022Z,78.46
2022-11-24T22:53:12.046Z,78.29
2022-11-24T22:58:16.328Z,78.49
2022-11-24T23:03:21.788Z,78.47
2022-11-24T23:08:26.077Z,78.90
2022-11-24T23:13:30.366Z,79.16
2022-11-24T23:18:36.718Z,78.01
2022-11-24T23:23:41.361Z,78.61
2022-11-24T23:28:46.718Z,78.12
2022-11-24T23:33:52.116Z,78.34
2022-11-24T23:38:57.657Z,78.49
2022-11-24T23:44:01.928Z,78.87
2022-11-24T23:49:07.447Z,78.89
2022-11-24T23:54:11.486Z,78.70
2022-11-24T23:59:17.361Z,77.93
